KRCA/RCA METAR and TAF weather

Enter ICAO airport designator
Station Type Date Time Source
KRCA METAR 2022/01/28 00:01 UTC NOAA

KRCA 280001Z 00000KT 5SM -SN BR SCT016 BKN041 OVC055 M03/M05 A3033 RMK AO2A SLP312 $


Station Type Date Time Source
KRCA Decoded METAR 2022/01/28 00:01 UTC NOAA

Ellsworth Air Force Base, SD, United States (KRCA) 44-09N 103-06W
Jan 27, 2022 - 07:01 PM EST / 2022.01.28 0001 UTC
Wind: Calm:0
Visibility: 5 mile(s):0
Sky conditions: overcast
Weather: light snow; mist
Temperature: 26 F (-3 C)
Dew Point: 23 F (-5 C)
Relative Humidity: 86%
Pressure (altimeter): 30.33 in. Hg (1027 hPa)
ob: KRCA 280001Z 00000KT 5SM -SN BR SCT016 BKN041 OVC055 M03/M05 A3033 RMK AO2A SLP312
cycle: 0

Station Type Date Time Source
KRCA TAF 2022/01/27 23:03 UTC NOAA

TAF
AMD KRCA 272300Z 2723/2901 36009KT 9999 BKN025 OVC030 620256 QNH3028INS
TEMPO 2723/2724 3200 -SHSN
BECMG 2801/2802 VRB06KT 9999 BKN100 QNH3018INS
BECMG 2817/2818 32012G18KT 9999 SCT100 QNH3013INS TX06/2803Z TNM04/2813Z

Example: see airport list